Time;durP1;ratioP1;P1;durP2;ratioP2;P2;SDS_P1;SDS_P2;PMS_P1;PMS_P2;Temp;Humidity;BMP_temperature;BMP_pressure;BME280_temperature;BME280_humidity;BME280_pressure;Samples;Min_cycle;Max_cycle;Signal;HPM_P1;HPM_P2
2022/09/24 00:02:15;;;;;;;30.67;28.23;;;13.80;99.90;;;;;;5081501;28;20901;-81
2022/09/24 00:04:43;;;;;;;29.30;27.00;;;13.80;99.90;;;;;;5083938;28;20498;-80
2022/09/24 00:07:11;;;;;;;29.87;27.47;;;13.80;99.90;;;;;;5081946;28;20408;-81
2022/09/24 00:09:41;;;;;;;32.23;29.63;;;13.80;99.90;;;;;;5082119;28;20457;-79
2022/09/24 00:12:12;;;;;;;31.63;29.03;;;13.80;99.90;;;;;;5083562;28;20468;-81
2022/09/24 00:14:41;;;;;;;30.87;28.57;;;13.80;99.90;;;;;;5082250;28;20985;-81
2022/09/24 00:17:09;;;;;;;29.13;26.83;;;13.80;99.90;;;;;;5081525;28;20949;-82
2022/09/24 00:19:37;;;;;;;28.63;26.43;;;13.70;99.90;;;;;;5092106;28;20453;-81
2022/09/24 00:22:05;;;;;;;28.53;26.23;;;13.80;99.90;;;;;;5088989;28;20476;-81
2022/09/24 00:27:20;;;;;;;29.93;27.43;;;13.70;99.90;;;;;;5086968;28;20890;-83
2022/09/24 00:29:48;;;;;;;29.80;27.37;;;13.70;99.90;;;;;;5084655;28;21015;-82
2022/09/24 00:32:16;;;;;;;29.13;26.87;;;13.70;99.90;;;;;;5084678;28;20461;-82
2022/09/24 00:34:44;;;;;;;30.20;27.50;;;13.70;99.90;;;;;;5083807;28;20476;-82
2022/09/24 00:37:13;;;;;;;28.00;25.80;;;13.70;99.90;;;;;;5083742;28;20520;-82
2022/09/24 00:39:41;;;;;;;28.53;26.23;;;13.70;99.90;;;;;;5083887;28;20437;-82
2022/09/24 00:42:09;;;;;;;27.77;25.67;;;13.70;99.90;;;;;;5083521;28;20479;-82
2022/09/24 00:44:54;;;;;;;29.47;27.23;;;13.70;99.90;;;;;;5081597;28;20449;-82
2022/09/24 00:47:32;;;;;;;29.80;27.60;;;13.70;99.90;;;;;;5081240;28;20448;-81
2022/09/24 00:50:09;;;;;;;29.63;27.27;;;13.70;99.90;;;;;;5082487;28;20502;-82
2022/09/24 00:52:41;;;;;;;29.37;27.03;;;13.70;99.90;;;;;;5080544;28;20471;-82
2022/09/24 00:55:10;;;;;;;27.47;25.37;;;13.60;99.90;;;;;;5081052;28;20466;-82
2022/09/24 00:57:40;;;;;;;28.00;25.70;;;13.60;99.90;;;;;;5080849;28;20440;-82
2022/09/24 01:00:12;;;;;;;27.17;24.90;;;13.60;99.90;;;;;;5082359;28;20440;-82
2022/09/24 01:02:44;;;;;;;27.73;25.43;;;13.60;99.90;;;;;;5083177;28;20478;-83
2022/09/24 01:05:14;;;;;;;26.80;24.50;;;13.60;99.90;;;;;;5080830;28;20441;-81
2022/09/24 01:07:42;;;;;;;26.27;24.17;;;13.60;99.90;;;;;;5083498;28;20445;-81
2022/09/24 01:10:11;;;;;;;26.90;24.80;;;13.60;99.90;;;;;;5085941;28;20808;-81
2022/09/24 01:12:46;;;;;;;26.87;24.87;;;13.60;99.90;;;;;;5086762;28;20453;-81
2022/09/24 01:15:26;;;;;;;29.03;26.53;;;13.60;99.90;;;;;;5086592;28;20456;-80
2022/09/24 01:18:03;;;;;;;28.17;25.97;;;13.60;99.90;;;;;;5085012;28;20433;-81
2022/09/24 01:21:05;;;;;;;27.17;24.87;;;13.50;99.90;;;;;;5086281;28;20447;-81
2022/09/24 01:23:55;;;;;;;27.00;24.80;;;13.50;99.90;;;;;;5086065;28;20526;-80
2022/09/24 01:26:44;;;;;;;28.03;25.60;;;13.50;99.90;;;;;;5085075;28;20429;-82
2022/09/24 01:29:44;;;;;;;26.77;24.57;;;13.50;99.90;;;;;;5085128;28;20459;-80
2022/09/24 01:32:19;;;;;;;27.90;25.50;;;13.50;99.90;;;;;;5070977;28;20475;-81
2022/09/24 01:34:53;;;;;;;27.50;25.10;;;13.50;99.90;;;;;;5087915;28;20551;-80
2022/09/24 01:37:24;;;;;;;24.40;22.40;;;13.50;99.90;;;;;;5088030;28;20440;-80
2022/09/24 01:39:53;;;;;;;25.10;23.10;;;13.50;99.90;;;;;;5088285;28;20429;-80
2022/09/24 01:42:23;;;;;;;26.30;24.20;;;13.40;99.90;;;;;;5083854;28;20997;-81
2022/09/24 01:44:56;;;;;;;25.00;22.90;;;13.40;99.90;;;;;;5083301;28;20445;-83
2022/09/24 01:47:31;;;;;;;25.40;23.40;;;13.40;99.90;;;;;;5081590;28;20440;-80
2022/09/24 01:50:04;;;;;;;25.57;23.37;;;13.40;99.90;;;;;;5080435;28;20448;-81
2022/09/24 01:52:44;;;;;;;26.70;24.60;;;13.40;99.90;;;;;;5080920;28;20491;-81
2022/09/24 01:55:17;;;;;;;25.90;23.70;;;13.40;99.90;;;;;;5082467;28;20477;-81
2022/09/24 01:57:48;;;;;;;24.33;22.10;;;13.40;99.90;;;;;;5080352;28;20441;-80
2022/09/24 02:00:21;;;;;;;26.57;24.27;;;13.40;99.90;;;;;;5080468;28;20456;-80
2022/09/24 02:02:56;;;;;;;25.43;23.40;;;13.40;99.90;;;;;;5080589;28;20534;-80
2022/09/24 02:05:30;;;;;;;25.93;23.67;;;13.40;99.90;;;;;;5080968;28;20428;-80
2022/09/24 02:08:04;;;;;;;23.97;21.77;;;13.30;99.90;;;;;;5080049;28;20500;-80
2022/09/24 02:10:38;;;;;;;24.07;22.03;;;13.30;99.90;;;;;;5079750;28;20447;-81
2022/09/24 02:13:09;;;;;;;25.37;23.17;;;13.30;99.90;;;;;;5079651;28;20473;-81
2022/09/24 02:15:41;;;;;;;25.17;22.97;;;13.30;99.90;;;;;;5079558;28;20475;-82
2022/09/24 02:18:14;;;;;;;24.30;22.20;;;13.30;99.90;;;;;;5078511;28;20441;-80
2022/09/24 02:20:44;;;;;;;25.30;23.30;;;13.30;99.90;;;;;;5078510;28;20445;-81
2022/09/24 02:23:15;;;;;;;24.97;22.87;;;13.30;99.90;;;;;;5080074;28;20457;-80
2022/09/24 02:25:50;;;;;;;24.53;22.50;;;13.20;99.90;;;;;;5080907;28;20490;-81
2022/09/24 02:28:19;;;;;;;24.53;22.23;;;13.20;99.90;;;;;;5079199;28;20444;-82
2022/09/24 02:30:51;;;;;;;24.00;22.00;;;13.20;99.90;;;;;;5079739;28;20445;-82
2022/09/24 02:36:07;;;;;;;24.47;22.20;;;13.20;99.90;;;;;;5077895;28;20452;-78
2022/09/24 02:38:36;;;;;;;23.87;21.87;;;13.20;99.90;;;;;;5078054;28;20477;-78
2022/09/24 02:41:07;;;;;;;24.47;22.47;;;13.20;99.90;;;;;;5078363;28;20448;-80
2022/09/24 02:43:35;;;;;;;23.33;21.23;;;13.20;99.90;;;;;;5080493;28;20483;-80
2022/09/24 02:46:05;;;;;;;26.17;23.93;;;13.10;99.90;;;;;;5079214;28;20445;-80
2022/09/24 02:48:33;;;;;;;25.37;23.07;;;13.10;99.90;;;;;;5078462;28;20846;-80
2022/09/24 02:51:03;;;;;;;22.60;20.67;;;13.20;99.90;;;;;;5078137;28;20829;-79
2022/09/24 02:53:31;;;;;;;24.70;22.60;;;13.10;99.90;;;;;;5078559;28;20497;-80
2022/09/24 02:56:00;;;;;;;24.27;22.27;;;13.10;99.90;;;;;;5078420;28;20561;-79
2022/09/24 02:58:28;;;;;;;25.40;23.20;;;13.10;99.90;;;;;;5077222;28;20437;-80
2022/09/24 03:00:57;;;;;;;24.10;22.10;;;13.10;99.90;;;;;;5077270;28;20809;-79
2022/09/24 03:03:27;;;;;;;26.70;24.33;;;13.10;99.90;;;;;;5077162;28;20518;-79
2022/09/24 03:05:55;;;;;;;26.70;24.50;;;13.10;99.90;;;;;;5076830;28;20449;-80
2022/09/24 03:08:24;;;;;;;24.77;22.70;;;13.00;99.90;;;;;;5078418;28;20505;-80
2022/09/24 03:10:54;;;;;;;26.03;23.93;;;13.00;99.90;;;;;;5076667;28;20971;-79
2022/09/24 03:13:23;;;;;;;28.20;25.60;;;13.00;99.90;;;;;;5079593;28;20460;-79
2022/09/24 03:15:51;;;;;;;27.60;25.40;;;13.00;99.90;;;;;;5076482;28;20471;-80
2022/09/24 03:18:19;;;;;;;28.20;25.80;;;12.90;99.90;;;;;;5075754;28;20441;-80
2022/09/24 03:20:56;;;;;;;27.90;25.50;;;13.00;99.90;;;;;;5076450;28;20453;-80
2022/09/24 03:23:24;;;;;;;32.73;29.77;;;13.00;99.90;;;;;;5076510;28;20461;-81
2022/09/24 03:25:53;;;;;;;33.80;30.80;;;13.00;99.90;;;;;;5077071;28;20456;-81
2022/09/24 03:28:21;;;;;;;37.80;34.50;;;13.00;99.90;;;;;;5075436;28;20961;-79
2022/09/24 03:31:01;;;;;;;31.97;29.17;;;13.00;99.90;;;;;;5083361;28;20448;-81
2022/09/24 03:33:31;;;;;;;28.07;25.70;;;13.00;99.90;;;;;;5080621;28;20483;-81
2022/09/24 03:36:04;;;;;;;27.70;25.40;;;13.00;99.90;;;;;;5079321;28;21119;-80
2022/09/24 03:38:32;;;;;;;28.37;26.03;;;13.00;99.90;;;;;;5078585;28;20437;-80
2022/09/24 03:41:01;;;;;;;27.23;24.73;;;13.00;99.90;;;;;;5078691;28;20503;-79
2022/09/24 03:43:30;;;;;;;26.83;24.60;;;13.00;99.90;;;;;;5078444;28;20476;-80
2022/09/24 03:45:58;;;;;;;29.00;26.47;;;13.00;99.90;;;;;;5084139;28;20448;-79
2022/09/24 03:48:28;;;;;;;29.80;26.87;;;12.90;99.90;;;;;;5082882;28;20453;-79
2022/09/24 03:51:02;;;;;;;30.07;27.47;;;12.90;99.90;;;;;;5082156;28;20877;-80
2022/09/24 03:53:32;;;;;;;28.43;26.03;;;13.00;99.90;;;;;;5081270;28;20465;-79
2022/09/24 03:56:01;;;;;;;31.27;28.50;;;13.00;99.90;;;;;;5081641;28;20461;-79
2022/09/24 03:58:30;;;;;;;31.93;28.93;;;12.90;99.90;;;;;;5081492;28;20792;-79
2022/09/24 04:00:59;;;;;;;32.53;29.90;;;12.90;99.90;;;;;;5083720;28;20441;-79
2022/09/24 04:03:27;;;;;;;33.77;30.83;;;13.00;99.90;;;;;;5082495;28;20475;-78
2022/09/24 04:05:55;;;;;;;36.87;33.80;;;12.90;99.90;;;;;;5082597;28;20429;-79
2022/09/24 04:08:24;;;;;;;36.50;33.37;;;12.90;99.90;;;;;;5079335;28;20449;-80
2022/09/24 04:10:55;;;;;;;37.27;33.73;;;12.90;99.90;;;;;;5077849;28;20968;-79
2022/09/24 04:13:23;;;;;;;34.87;31.90;;;12.90;99.90;;;;;;5076178;28;20469;-82
2022/09/24 04:15:52;;;;;;;37.37;33.97;;;12.90;99.90;;;;;;5077945;28;20966;-80
2022/09/24 04:18:21;;;;;;;38.70;35.40;;;12.90;99.90;;;;;;5075788;28;20445;-81
2022/09/24 04:20:49;;;;;;;38.20;34.90;;;12.90;99.90;;;;;;5075956;28;20480;-81
2022/09/24 04:23:17;;;;;;;39.87;36.20;;;12.90;99.90;;;;;;5075984;28;20468;-80
2022/09/24 04:25:45;;;;;;;38.03;34.77;;;12.90;99.90;;;;;;5077712;28;20437;-80
2022/09/24 04:28:15;;;;;;;42.13;38.43;;;12.90;99.90;;;;;;5076735;28;20465;-80
2022/09/24 04:30:43;;;;;;;43.57;39.60;;;12.90;99.90;;;;;;5076084;28;20954;-81
2022/09/24 04:33:12;;;;;;;42.40;38.70;;;12.90;99.90;;;;;;5076050;28;20461;-82
2022/09/24 04:35:40;;;;;;;42.00;38.27;;;12.90;99.90;;;;;;5076583;28;20498;-81
2022/09/24 04:38:08;;;;;;;44.07;39.97;;;12.90;99.90;;;;;;5076225;28;20451;-81
2022/09/24 04:40:38;;;;;;;46.53;42.40;;;12.80;99.90;;;;;;5076199;28;20503;-81
2022/09/24 04:43:07;;;;;;;46.13;41.87;;;12.80;99.90;;;;;;5074988;28;20545;-79
2022/09/24 04:45:38;;;;;;;46.07;41.93;;;12.80;99.90;;;;;;5076006;28;20446;-80
2022/09/24 04:48:07;;;;;;;47.60;43.27;;;12.80;99.90;;;;;;5077230;28;20418;-79
2022/09/24 04:50:36;;;;;;;45.80;41.70;;;12.90;99.90;;;;;;5075873;28;20441;-79
2022/09/24 04:53:11;;;;;;;47.83;43.40;;;12.80;99.90;;;;;;5076390;28;20527;-79
2022/09/24 04:55:40;;;;;;;47.63;43.47;;;12.80;99.90;;;;;;5074968;28;20475;-79
2022/09/24 04:58:09;;;;;;;50.43;45.63;;;12.80;99.90;;;;;;5075160;28;20449;-80
2022/09/24 05:00:39;;;;;;;47.93;43.53;;;12.80;99.90;;;;;;5076214;28;20938;-79
2022/09/24 05:03:08;;;;;;;51.00;46.40;;;12.80;99.90;;;;;;5074950;28;20473;-80
2022/09/24 05:05:36;;;;;;;51.73;46.90;;;12.80;99.90;;;;;;5075121;28;20445;-79
2022/09/24 05:08:04;;;;;;;50.57;45.87;;;12.80;99.90;;;;;;5075008;28;20464;-79
2022/09/24 05:10:33;;;;;;;54.50;49.13;;;12.80;99.90;;;;;;5075248;28;20463;-79
2022/09/24 05:13:01;;;;;;;53.90;48.80;;;12.80;99.90;;;;;;5075830;28;20465;-79
2022/09/24 05:15:30;;;;;;;55.10;49.90;;;12.80;99.90;;;;;;5081781;28;20476;-79
2022/09/24 05:17:59;;;;;;;55.37;50.00;;;12.80;99.90;;;;;;5079044;28;20447;-80
2022/09/24 05:20:27;;;;;;;55.60;50.30;;;12.80;99.90;;;;;;5074889;28;20464;-80
2022/09/24 05:22:56;;;;;;;59.40;53.70;;;12.80;99.90;;;;;;5075626;28;20468;-80
2022/09/24 05:25:24;;;;;;;59.97;54.37;;;12.80;99.90;;;;;;5075247;28;20449;-79
2022/09/24 05:27:53;;;;;;;56.83;51.37;;;12.80;99.90;;;;;;5079525;28;20437;-80
2022/09/24 05:30:23;;;;;;;60.70;54.67;;;12.80;99.90;;;;;;5079249;28;20480;-79
2022/09/24 05:32:52;;;;;;;58.00;52.47;;;12.80;99.90;;;;;;5079604;28;20540;-80
2022/09/24 05:35:22;;;;;;;56.40;50.90;;;12.80;99.90;;;;;;5078321;28;20476;-80
2022/09/24 05:37:52;;;;;;;58.07;52.70;;;12.80;99.90;;;;;;5077477;28;20442;-80
2022/09/24 05:43:08;;;;;;;62.40;56.43;;;12.80;99.90;;;;;;5076661;28;20519;-80
2022/09/24 05:45:36;;;;;;;60.37;54.90;;;12.80;99.90;;;;;;5076475;28;20449;-79
2022/09/24 05:48:05;;;;;;;63.10;57.03;;;12.80;99.90;;;;;;5076605;28;20449;-80
2022/09/24 05:50:35;;;;;;;59.83;54.17;;;12.80;99.90;;;;;;5076044;28;20453;-80
2022/09/24 05:53:04;;;;;;;62.87;56.83;;;12.80;99.90;;;;;;5077922;28;21015;-80
2022/09/24 05:55:33;;;;;;;62.40;56.60;;;12.80;99.90;;;;;;5080363;28;20488;-80
2022/09/24 05:58:05;;;;;;;57.43;51.93;;;12.80;99.90;;;;;;5079919;28;20456;-80
2022/09/24 06:00:34;;;;;;;60.17;54.47;;;12.80;99.90;;;;;;5079116;28;20457;-80
2022/09/24 06:03:06;;;;;;;62.57;56.33;;;12.80;99.90;;;;;;5079618;28;21015;-80
2022/09/24 06:05:36;;;;;;;65.93;59.13;;;12.80;99.90;;;;;;5080340;28;20460;-80
2022/09/24 06:08:05;;;;;;;61.97;56.03;;;12.80;99.90;;;;;;5078776;28;20483;-80
2022/09/24 06:10:35;;;;;;;65.63;59.47;;;12.80;99.90;;;;;;5079502;28;20793;-79
2022/09/24 06:13:03;;;;;;;62.93;56.90;;;12.80;99.90;;;;;;5079074;28;21036;-80
2022/09/24 06:15:33;;;;;;;61.00;54.80;;;12.80;99.90;;;;;;5078858;28;20869;-80
2022/09/24 06:18:01;;;;;;;59.07;53.57;;;12.90;99.90;;;;;;5078596;28;20871;-80
2022/09/24 06:20:32;;;;;;;61.23;55.13;;;12.90;99.90;;;;;;5083444;28;20432;-78
2022/09/24 06:23:02;;;;;;;62.47;56.10;;;12.90;99.90;;;;;;5080642;28;20827;-81
2022/09/24 06:25:31;;;;;;;62.47;55.87;;;12.90;99.90;;;;;;5079620;28;20456;-80
2022/09/24 06:28:01;;;;;;;58.77;53.03;;;12.90;99.90;;;;;;5080041;28;21004;-80
2022/09/24 06:30:31;;;;;;;63.40;57.37;;;12.90;99.90;;;;;;5080520;28;20457;-80
2022/09/24 06:33:03;;;;;;;62.17;55.87;;;13.00;99.90;;;;;;5079673;28;20476;-80
2022/09/24 06:35:35;;;;;;;65.70;59.30;;;13.00;99.90;;;;;;5079620;28;20481;-80
2022/09/24 06:38:06;;;;;;;61.13;55.20;;;13.00;99.90;;;;;;5079442;28;20928;-80
2022/09/24 06:40:35;;;;;;;57.70;51.90;;;13.00;99.90;;;;;;5077309;28;20480;-80
2022/09/24 06:43:05;;;;;;;61.43;55.07;;;13.00;99.90;;;;;;5078005;28;20457;-79
2022/09/24 06:45:34;;;;;;;65.00;58.80;;;13.00;99.90;;;;;;5076486;28;20453;-80
2022/09/24 06:48:04;;;;;;;60.43;54.30;;;13.00;99.90;;;;;;5077960;28;20446;-79
2022/09/24 06:50:34;;;;;;;61.57;55.40;;;13.00;99.90;;;;;;5076717;28;20451;-79
2022/09/24 06:53:07;;;;;;;59.17;53.07;;;13.10;99.90;;;;;;5077502;28;20554;-80
2022/09/24 06:55:35;;;;;;;60.67;54.47;;;13.10;99.90;;;;;;5077387;28;20441;-80
2022/09/24 06:58:05;;;;;;;61.67;55.37;;;13.10;99.90;;;;;;5076924;28;20471;-80
2022/09/24 07:00:34;;;;;;;62.97;56.47;;;13.10;99.90;;;;;;5078177;28;20498;-79
2022/09/24 07:03:03;;;;;;;64.83;54.23;;;13.10;99.90;;;;;;5077430;28;20469;-79
2022/09/24 07:05:31;;;;;;;60.43;54.23;;;13.10;99.90;;;;;;5075917;28;20867;-80
2022/09/24 07:07:59;;;;;;;59.20;53.00;;;13.10;99.90;;;;;;5078293;28;20950;-79
2022/09/24 07:10:29;;;;;;;58.67;52.67;;;13.10;99.90;;;;;;5076392;28;20456;-79
2022/09/24 07:12:58;;;;;;;61.07;54.70;;;13.20;99.90;;;;;;5076368;28;20465;-79
2022/09/24 07:15:26;;;;;;;62.83;56.37;;;13.20;99.90;;;;;;5076355;28;20445;-79
2022/09/24 07:17:59;;;;;;;58.73;52.73;;;13.20;99.90;;;;;;5078055;28;20439;-80
2022/09/24 07:20:28;;;;;;;62.63;56.03;;;13.20;99.90;;;;;;5076561;28;20449;-80
2022/09/24 07:22:56;;;;;;;63.83;57.20;;;13.20;99.90;;;;;;5077703;28;20469;-80
2022/09/24 07:25:29;;;;;;;61.70;55.73;;;13.30;99.90;;;;;;5077398;28;20507;-80
2022/09/24 07:28:02;;;;;;;73.23;65.67;;;13.30;99.90;;;;;;5077820;28;20437;-80
2022/09/24 07:30:30;;;;;;;64.73;58.03;;;13.30;99.90;;;;;;5078203;28;20855;-80
2022/09/24 07:32:59;;;;;;;65.93;58.77;;;13.30;99.90;;;;;;5078705;28;20499;-80
2022/09/24 07:35:28;;;;;;;68.70;61.30;;;13.30;99.90;;;;;;5076653;28;20437;-80
2022/09/24 07:37:58;;;;;;;69.23;62.23;;;13.40;99.90;;;;;;5078710;28;20484;-79
2022/09/24 07:40:27;;;;;;;69.37;62.57;;;13.40;99.90;;;;;;5075790;28;20536;-79
2022/09/24 07:42:57;;;;;;;70.03;62.73;;;13.40;99.90;;;;;;5075995;28;20551;-81
2022/09/24 07:45:28;;;;;;;69.93;62.93;;;13.40;99.90;;;;;;5081488;28;20476;-79
2022/09/24 07:47:58;;;;;;;66.40;59.60;;;13.40;99.90;;;;;;5078358;28;20470;-80
2022/09/24 07:50:28;;;;;;;66.87;60.17;;;13.50;99.90;;;;;;5075836;28;20910;-80
2022/09/24 07:52:56;;;;;;;69.73;62.73;;;13.40;99.90;;;;;;5076681;28;20919;-81
2022/09/24 07:55:24;;;;;;;89.67;81.03;;;13.50;99.90;;;;;;5075456;28;20966;-80
2022/09/24 07:57:54;;;;;;;67.63;60.70;;;13.50;99.90;;;;;;5074774;28;20504;-80
2022/09/24 08:00:25;;;;;;;65.93;59.23;;;13.60;99.90;;;;;;5076582;28;20872;-79
2022/09/24 08:02:55;;;;;;;87.93;79.27;;;13.60;99.90;;;;;;5075632;28;20507;-81
2022/09/24 08:05:24;;;;;;;65.87;59.30;;;13.60;99.90;;;;;;5075547;28;20444;-80
2022/09/24 08:07:53;;;;;;;68.90;61.70;;;13.60;99.90;;;;;;5076594;28;20488;-81
2022/09/24 08:10:22;;;;;;;67.90;61.00;;;13.60;99.90;;;;;;5077027;28;20449;-81
2022/09/24 08:12:52;;;;;;;66.97;59.77;;;13.70;99.90;;;;;;5076076;28;20603;-81
2022/09/24 08:15:21;;;;;;;62.13;55.70;;;13.70;99.90;;;;;;5076301;28;20453;-81
2022/09/24 08:17:51;;;;;;;64.60;58.00;;;13.70;99.90;;;;;;5077358;28;20970;-80
2022/09/24 08:20:22;;;;;;;61.60;55.50;;;13.80;99.90;;;;;;5081302;28;20479;-79
2022/09/24 08:22:50;;;;;;;61.93;55.60;;;13.80;99.90;;;;;;5080170;28;20435;-79
2022/09/24 08:25:18;;;;;;;59.50;53.40;;;13.80;99.90;;;;;;5077894;28;20442;-81
2022/09/24 08:27:46;;;;;;;60.10;53.80;;;13.80;99.90;;;;;;5080248;28;21004;-80
2022/09/24 08:30:14;;;;;;;59.23;53.13;;;13.90;99.90;;;;;;5079873;28;20476;-82
2022/09/24 08:32:46;;;;;;;58.60;52.80;;;13.90;99.90;;;;;;5079945;28;20473;-81
2022/09/24 08:35:16;;;;;;;53.37;48.00;;;14.00;99.90;;;;;;5080005;28;20449;-81
2022/09/24 08:37:45;;;;;;;55.30;49.50;;;14.00;99.90;;;;;;5079165;28;20472;-79
2022/09/24 08:40:18;;;;;;;55.97;50.10;;;14.00;99.90;;;;;;5081143;28;20430;-79
2022/09/24 08:42:51;;;;;;;54.43;49.00;;;14.00;99.90;;;;;;5077825;28;20483;-82
2022/09/24 08:48:26;;;;;;;55.20;49.23;;;14.10;99.90;;;;;;5023095;28;20444;-84
2022/09/24 08:51:01;;;;;;;51.57;46.27;;;14.10;99.90;;;;;;5007144;28;20455;-81
2022/09/24 08:53:38;;;;;;;49.73;44.70;;;14.20;99.90;;;;;;5044645;28;20544;-80
2022/09/24 08:56:08;;;;;;;44.77;40.30;;;14.20;99.90;;;;;;5082330;28;20460;-81
2022/09/24 08:58:45;;;;;;;45.37;40.77;;;14.20;99.90;;;;;;5083477;28;20465;-81
2022/09/24 09:01:22;;;;;;;44.17;39.80;;;14.30;99.90;;;;;;5084080;28;20437;-82
2022/09/24 09:03:56;;;;;;;43.10;39.10;;;14.30;99.90;;;;;;5087471;28;20504;-84
2022/09/24 09:06:44;;;;;;;43.83;39.53;;;14.40;99.90;;;;;;5085107;28;20468;-82
2022/09/24 09:09:16;;;;;;;38.97;35.33;;;14.40;99.90;;;;;;5085996;28;20846;-82
2022/09/24 09:11:48;;;;;;;41.50;37.37;;;14.40;99.90;;;;;;5085978;28;20449;-82
2022/09/24 09:14:24;;;;;;;40.73;36.70;;;14.50;99.90;;;;;;5085765;28;20437;-81
2022/09/24 09:17:02;;;;;;;41.33;37.43;;;14.50;99.90;;;;;;5085403;28;20440;-82
2022/09/24 09:19:35;;;;;;;40.37;36.37;;;14.50;99.90;;;;;;5084525;28;20472;-84
2022/09/24 09:22:11;;;;;;;40.37;36.47;;;14.50;99.90;;;;;;5086080;28;20449;-82
2022/09/24 09:24:47;;;;;;;39.90;36.30;;;14.50;99.90;;;;;;5082499;28;20424;-80
2022/09/24 09:27:17;;;;;;;38.67;34.80;;;14.50;99.90;;;;;;5085619;28;20421;-83
2022/09/24 09:29:48;;;;;;;38.30;34.50;;;14.60;99.90;;;;;;5086649;28;20464;-83
2022/09/24 09:32:30;;;;;;;37.03;33.63;;;14.60;99.90;;;;;;5086486;28;20473;-82
2022/09/24 09:35:06;;;;;;;39.50;35.90;;;14.60;99.90;;;;;;5084293;28;20437;-86
2022/09/24 09:37:42;;;;;;;37.73;34.27;;;14.70;99.90;;;;;;5086119;28;20495;-85
2022/09/24 09:40:30;;;;;;;37.97;34.47;;;14.60;99.90;;;;;;5086735;28;20457;-83
2022/09/24 09:43:02;;;;;;;40.03;36.03;;;14.70;99.90;;;;;;5087482;28;20469;-80
2022/09/24 09:45:38;;;;;;;39.60;35.73;;;14.70;99.90;;;;;;5087275;28;20799;-80
2022/09/24 09:48:11;;;;;;;40.80;37.00;;;14.70;99.90;;;;;;5083831;28;20437;-84
2022/09/24 09:50:43;;;;;;;42.47;37.67;;;14.70;99.90;;;;;;5087889;28;20421;-84
2022/09/24 09:53:21;;;;;;;41.63;37.80;;;14.70;99.90;;;;;;5084921;28;20468;-86
2022/09/24 09:55:54;;;;;;;41.30;37.50;;;14.70;99.90;;;;;;5082811;28;20870;-82
2022/09/24 09:58:25;;;;;;;40.70;36.90;;;14.70;99.90;;;;;;5093015;28;20584;-81
2022/09/24 10:01:04;;;;;;;44.70;40.30;;;14.70;99.90;;;;;;5086900;28;20490;-83
2022/09/24 10:03:35;;;;;;;43.50;39.50;;;14.70;99.90;;;;;;5085102;28;20468;-83
2022/09/24 10:06:06;;;;;;;42.93;38.43;;;14.80;99.90;;;;;;5084315;28;20433;-83
2022/09/24 10:08:36;;;;;;;46.87;42.40;;;14.80;99.90;;;;;;5085341;28;20858;-82
2022/09/24 10:11:06;;;;;;;44.03;39.60;;;14.80;99.90;;;;;;5085179;28;20438;-82
2022/09/24 10:13:35;;;;;;;41.93;37.90;;;14.80;99.90;;;;;;5084755;28;20458;-82
2022/09/24 10:16:08;;;;;;;43.50;38.90;;;14.80;99.90;;;;;;5085659;28;20942;-82
2022/09/24 10:18:42;;;;;;;42.83;38.73;;;14.90;99.90;;;;;;5084776;28;20457;-82
2022/09/24 10:21:13;;;;;;;41.03;37.07;;;14.90;99.90;;;;;;5084244;28;20449;-83
2022/09/24 10:23:47;;;;;;;40.50;36.67;;;14.90;99.90;;;;;;5084587;28;20985;-82
2022/09/24 10:26:15;;;;;;;40.37;36.47;;;15.00;99.90;;;;;;5083484;28;20472;-82
2022/09/24 10:31:37;;;;;;;40.53;36.53;;;15.00;99.90;;;;;;5082150;28;20469;-80
2022/09/24 10:34:20;;;;;;;39.93;36.10;;;15.00;99.90;;;;;;5081784;28;20441;-81
2022/09/24 10:36:51;;;;;;;41.87;37.73;;;15.00;99.90;;;;;;5082266;28;20438;-81
2022/09/24 10:39:21;;;;;;;40.27;36.33;;;15.00;99.90;;;;;;5082539;28;20541;-81
2022/09/24 10:41:51;;;;;;;42.30;37.93;;;15.10;99.90;;;;;;5082358;28;20475;-81
2022/09/24 10:44:21;;;;;;;48.63;36.43;;;15.10;99.90;;;;;;5083591;28;20799;-81
2022/09/24 10:47:07;;;;;;;39.60;35.80;;;15.20;99.90;;;;;;5082107;28;20468;-83
2022/09/24 10:49:53;;;;;;;37.83;34.17;;;15.20;99.90;;;;;;5083521;28;20400;-82
2022/09/24 10:52:36;;;;;;;38.53;34.63;;;15.30;99.90;;;;;;5081980;28;20460;-81
2022/09/24 10:55:17;;;;;;;35.00;31.60;;;15.30;99.90;;;;;;5082862;28;20473;-81
2022/09/24 10:57:56;;;;;;;36.50;32.90;;;15.30;99.90;;;;;;5082569;28;20434;-80
2022/09/24 11:00:31;;;;;;;37.13;33.30;;;15.30;99.90;;;;;;5083112;28;20408;-82
2022/09/24 11:03:27;;;;;;;37.47;33.67;;;15.30;99.90;;;;;;5087647;28;20485;-82
2022/09/24 11:06:12;;;;;;;39.23;35.50;;;15.30;99.90;;;;;;5087418;28;20461;-80
2022/09/24 11:08:56;;;;;;;36.13;32.53;;;15.30;99.90;;;;;;5083841;28;20837;-81
2022/09/24 11:11:38;;;;;;;35.57;32.17;;;15.30;99.90;;;;;;5081666;28;20539;-80
2022/09/24 11:14:23;;;;;;;39.10;35.13;;;15.20;99.90;;;;;;5081343;28;20416;-82
2022/09/24 11:17:14;;;;;;;37.57;34.07;;;15.20;99.90;;;;;;5082941;28;20436;-82
2022/09/24 11:20:06;;;;;;;36.93;32.47;;;15.20;99.90;;;;;;5081535;28;20540;-83
2022/09/24 11:22:47;;;;;;;36.73;33.30;;;15.20;99.90;;;;;;5067419;28;20985;-80
2022/09/24 11:25:27;;;;;;;38.90;35.03;;;15.20;99.90;;;;;;5081081;28;20475;-81
2022/09/24 11:28:08;;;;;;;38.67;34.97;;;15.20;99.90;;;;;;5081559;28;20936;-80
2022/09/24 11:30:47;;;;;;;38.33;34.43;;;15.20;99.90;;;;;;5082123;28;20431;-81
2022/09/24 11:33:29;;;;;;;38.63;34.80;;;15.20;99.90;;;;;;5079651;28;20468;-81
2022/09/24 11:36:09;;;;;;;38.53;34.53;;;15.20;99.90;;;;;;5082046;28;20481;-81
2022/09/24 11:38:51;;;;;;;40.57;36.27;;;15.20;99.90;;;;;;5083500;28;20446;-82
2022/09/24 11:41:33;;;;;;;35.33;31.80;;;15.30;99.90;;;;;;5084796;28;20480;-82
2022/09/24 11:44:30;;;;;;;38.67;34.97;;;15.30;99.90;;;;;;5083016;28;20576;-82
2022/09/24 11:47:16;;;;;;;39.17;35.30;;;15.30;99.90;;;;;;5082893;28;20441;-81
2022/09/24 11:50:04;;;;;;;37.90;34.07;;;15.30;99.90;;;;;;5086041;28;20437;-83
2022/09/24 11:52:39;;;;;;;40.67;36.83;;;15.30;99.90;;;;;;5085713;28;20436;-82
2022/09/24 11:55:15;;;;;;;37.20;33.60;;;15.30;99.90;;;;;;5084009;28;20502;-83
2022/09/24 11:57:50;;;;;;;38.47;34.70;;;15.30;99.90;;;;;;5082723;28;20433;-81
2022/09/24 12:00:21;;;;;;;38.03;34.40;;;15.30;99.90;;;;;;5082937;28;20469;-81
2022/09/24 12:02:52;;;;;;;38.40;34.67;;;15.30;99.90;;;;;;5079249;28;20468;-81
2022/09/24 12:05:28;;;;;;;41.73;37.57;;;15.40;99.90;;;;;;5081022;28;20424;-80
2022/09/24 12:08:02;;;;;;;40.27;36.10;;;15.40;99.90;;;;;;5079459;28;20415;-81
2022/09/24 12:10:37;;;;;;;39.37;35.37;;;15.50;99.90;;;;;;5079793;28;20548;-81
2022/09/24 12:13:12;;;;;;;38.70;35.00;;;15.50;99.90;;;;;;5079958;28;20474;-81
2022/09/24 12:15:49;;;;;;;39.50;35.30;;;15.60;99.90;;;;;;5080080;28;20930;-81
2022/09/24 12:18:22;;;;;;;39.53;35.60;;;15.60;99.90;;;;;;5079396;28;20860;-81
2022/09/24 12:20:55;;;;;;;38.77;34.87;;;15.70;99.90;;;;;;5081202;28;20866;-80
2022/09/24 12:23:28;;;;;;;40.70;36.60;;;15.70;99.90;;;;;;5082018;28;20482;-81
2022/09/24 12:25:59;;;;;;;39.90;35.90;;;15.80;99.90;;;;;;5080688;28;20495;-82
2022/09/24 12:34:25;;;;;;;37.53;33.73;;;16.00;99.90;;;;;;5081611;28;20436;-83
2022/09/24 12:37:03;;;;;;;38.00;34.27;;;16.00;99.90;;;;;;5083291;28;20441;-82
2022/09/24 12:39:38;;;;;;;39.60;35.70;;;16.00;99.90;;;;;;5083142;28;20439;-82
2022/09/24 12:42:09;;;;;;;38.60;35.00;;;16.00;99.90;;;;;;5082766;28;20456;-82
2022/09/24 12:44:43;;;;;;;36.40;32.97;;;16.00;99.90;;;;;;5082901;28;20428;-82
2022/09/24 12:47:19;;;;;;;36.10;32.30;;;16.10;99.90;;;;;;5082550;28;20444;-82
2022/09/24 12:49:54;;;;;;;37.83;34.03;;;16.10;99.90;;;;;;5082088;28;20838;-82
2022/09/24 12:52:25;;;;;;;35.23;31.60;;;16.00;99.90;;;;;;5081855;28;20496;-83
2022/09/24 12:54:59;;;;;;;35.13;31.73;;;16.00;99.90;;;;;;5081762;28;20437;-82
2022/09/24 12:57:31;;;;;;;35.40;32.10;;;16.00;99.90;;;;;;5083428;28;20421;-84
2022/09/24 13:00:00;;;;;;;37.00;33.30;;;16.00;99.90;;;;;;5083290;28;20462;-82
2022/09/24 13:02:42;;;;;;;36.13;32.57;;;16.00;99.90;;;;;;5083356;28;20472;-82
2022/09/24 13:05:18;;;;;;;36.20;32.70;;;15.90;99.90;;;;;;5080837;28;20412;-80
2022/09/24 13:07:57;;;;;;;37.90;34.07;;;15.90;99.90;;;;;;5079903;28;20408;-80
2022/09/24 13:10:28;;;;;;;35.40;31.80;;;15.90;99.90;;;;;;5082245;28;20757;-80
2022/09/24 13:12:58;;;;;;;36.70;33.10;;;15.90;99.90;;;;;;5080111;28;20452;-83
2022/09/24 13:15:33;;;;;;;36.40;32.80;;;15.90;99.90;;;;;;5080572;28;20962;-80